ADDS METAR Data INFO
IDs: Format: Raw Decoded Include TAF

Data at: 0249 UTC 17 Jan 2018

KBVN 170235Z AUTO 16004KT 10SM CLR M15/M18 A3057 RMK AO2 T11531185
KBVN 170215Z AUTO 00000KT 10SM CLR M16/M18 A3057 RMK AO2 T11561185
KBVN 170155Z AUTO 00000KT 10SM CLR M15/M18 A3058 RMK AO2 T11461178
KBVN 170135Z AUTO 00000KT 10SM CLR M15/M18 A3058 RMK AO2 T11471180
KBVN 170115Z AUTO 00000KT 10SM CLR M14/M17 A3059 RMK AO2 T11381173
KBVN 170055Z AUTO 00000KT 10SM CLR M13/M17 A3059 RMK AO2 T11291168
KBVN 170035Z AUTO 00000KT 10SM CLR M13/M17 A3059 RMK AO2 T11271169
KBVN 170015Z AUTO 00000KT 10SM CLR M13/M17 A3059 RMK AO2 T11301171
KBVN 162355Z AUTO 00000KT 10SM CLR M12/M17 A3059 RMK AO2 T11171166 11087 21130
KBVN 162335Z AUTO 22003KT 10SM CLR M11/M17 A3060 RMK AO2 T11151167
KBVN 162315Z AUTO 22004KT 10SM CLR M10/M16 A3061 RMK AO2 T11021162
KBVN 162255Z AUTO 25004KT 10SM CLR M09/M16 A3061 RMK AO2 T10931164
KBVN 162235Z AUTO 23005KT 10SM CLR M09/M16 A3061 RMK AO2 T10901165
KBVN 162215Z AUTO 21005KT 10SM CLR M09/M16 A3062 RMK AO2 T10891165
KBVN 162155Z AUTO 26003KT 10SM CLR M09/M17 A3063 RMK AO2 T10901167
KBVN 162135Z AUTO 25005KT 10SM CLR M09/M16 A3063 RMK AO2 T10881163
KBVN 162115Z AUTO 27004KT 10SM CLR M09/M17 A3064 RMK AO2 T10901166
KBVN 162055Z AUTO 32004KT 10SM CLR M09/M17 A3065 RMK AO2 T10951168
KBVN 162035Z AUTO 32004KT 10SM CLR M10/M17 A3065 RMK AO2 T10971170
KBVN 162015Z AUTO 29005KT 10SM CLR M10/M17 A3066 RMK AO2 T10991168
KBVN 161955Z AUTO 33006KT 10SM CLR M10/M17 A3066 RMK AO2 T11021170
KBVN 161935Z AUTO 31005KT 10SM CLR M10/M17 A3067 RMK AO2 T11051171
KBVN 161915Z AUTO 33005KT 10SM CLR M11/M18 A3068 RMK AO2 T11111176
KBVN 161855Z AUTO 33006KT 10SM CLR M12/M18 A3068 RMK AO2 T11191181
KBVN 161835Z AUTO 34007KT 10SM CLR M12/M18 A3069 RMK AO2 T11221184
KBVN 161815Z AUTO 33009KT 10SM CLR M12/M18 A3071 RMK AO2 T11251183
KBVN 161755Z AUTO 32010KT 10SM CLR M13/M19 A3071 RMK AO2 T11321189 11132 21181
KBVN 161735Z AUTO 32006KT 10SM CLR M13/M19 A3072 RMK AO2 T11341189
KBVN 161715Z AUTO 33010KT 10SM CLR M14/M19 A3073 RMK AO2 T11421193
KBVN 161655Z AUTO 33012KT 10SM CLR M15/M20 A3073 RMK AO2 T11501197
KBVN 161635Z AUTO 33009KT 10SM CLR M15/M20 A3074 RMK AO2 T11551199
KBVN 161615Z AUTO 32009KT 10SM CLR M16/M20 A3074 RMK AO2 T11591199
KBVN 161555Z AUTO 33011G18KT 10SM CLR M16/M20 A3073 RMK AO2 T11641200
KBVN 161535Z AUTO 33011KT 10SM CLR M17/M20 A3072 RMK AO2 T11701202
KBVN 161515Z AUTO 33011KT 10SM CLR M17/M20 A3071 RMK AO2 T11741203
KBVN 161455Z AUTO 33013G18KT 10SM CLR M18/M21 A3071 RMK AO2 T11801208
KBVN 161435Z AUTO 33011KT 10SM SCT012 M18/M21 A3071 RMK AO2 T11811210
KBVN 161415Z AUTO 32012KT 10SM OVC012 M18/M21 A3072 RMK AO2 T11771208
KBVN 161355Z AUTO 33010G17KT 10SM OVC012 M18/M21 A3073 RMK AO2 T11761209
KBVN 161335Z AUTO 32013KT 10SM OVC012 M17/M20 A3072 RMK AO2 T11731205
KBVN 161315Z AUTO 33012KT 10SM OVC012 M17/M20 A3071 RMK AO2 T11721205
KBVN 161255Z AUTO 33015G22KT 10SM OVC012 M17/M20 A3071 RMK AO2 T11721205
KBVN 161235Z AUTO 34019G23KT 10SM OVC012 M17/M20 A3070 RMK AO2 T11721205
KBVN 161215Z AUTO 34016G22KT 10SM OVC012 M17/M21 A3070 RMK AO2 T11721206
KBVN 161155Z AUTO 33018G22KT 10SM OVC012 M17/M21 A3070 RMK AO2 T11731206 11173 21187
KBVN 161135Z AUTO 33020G23KT 10SM OVC012 M17/M21 A3070 RMK AO2 T11751208
KBVN 161115Z AUTO 33018G25KT 10SM OVC012 M18/M21 A3069 RMK AO2 T11761210
KBVN 161055Z AUTO 33017G23KT 10SM BKN012 M18/M21 A3069 RMK AO2 T11791210
KBVN 161035Z AUTO 34017KT 10SM SCT014 M18/M21 A3069 RMK AO2 T11841212
KBVN 161015Z AUTO 33019G22KT 10SM BKN014 M18/M21 A3069 RMK AO2 T11831215
KBVN 160955Z AUTO 34012KT 7SM OVC014 M18/M21 A3070 RMK AO2 T11831212
KBVN 160935Z AUTO 33019G24KT 10SM BKN014 M18/M21 A3069 RMK AO2 T11851215
KBVN 160915Z AUTO 33013KT 10SM SCT014 M18/M22 A3069 RMK AO2 T11851217
KBVN 160855Z AUTO 34017G21KT 10SM SCT016 M18/M22 A3069 RMK AO2 T11851220
KBVN 160835Z AUTO 33013G19KT 10SM BKN016 M18/M22 A3069 RMK AO2 T11851220
KBVN 160815Z AUTO 33017G22KT 10SM OVC016 M18/M22 A3068 RMK AO2 T11811219
KBVN 160755Z AUTO 33015G23KT 10SM OVC016 M18/M22 A3068 RMK AO2 T11801221
KBVN 160735Z AUTO 33019G22KT 10SM OVC018 M18/M22 A3068 RMK AO2 T11801221
KBVN 160715Z AUTO 33014G23KT 10SM OVC020 M18/M22 A3068 RMK AO2 T11811222
KBVN 160655Z AUTO 33018G23KT 10SM OVC020 M18/M22 A3068 RMK AO2 T11811221
KBVN 160635Z AUTO 33011KT 10SM OVC018 M18/M22 A3069 RMK AO2 T11811221
KBVN 160615Z AUTO 33015G19KT 10SM OVC018 M18/M22 A3068 RMK AO2 T11841225
KBVN 160555Z AUTO 33013G22KT 10SM BKN020 M19/M23 A3069 RMK AO2 T11881230 11168 21188 410761188
KBVN 160535Z AUTO 33015G24KT 10SM CLR M19/M23 A3068 RMK AO2 T11871230
KBVN 160515Z AUTO 33016G20KT 10SM CLR M19/M23 A3068 RMK AO2 T11871226
KBVN 160455Z AUTO 33015G23KT 10SM CLR M18/M22 A3069 RMK AO2 T11851225
KBVN 160435Z AUTO 33018G24KT 10SM CLR M18/M22 A3068 RMK AO2 T11831225
KBVN 160415Z AUTO 33016G21KT 10SM CLR M18/M22 A3068 RMK AO2 T11821221
KBVN 160355Z AUTO 33019G22KT 10SM CLR M18/M22 A3068 RMK AO2 T11811220
KBVN 160335Z AUTO 34018G24KT 10SM CLR M18/M22 A3067 RMK AO2 T11801220
KBVN 160315Z AUTO 34014G19KT 10SM CLR M18/M22 A3068 RMK AO2 T11781217
KBVN 160255Z AUTO 34013G18KT 10SM CLR M18/M21 A3068 RMK AO2 T11771215
KBVN 160235Z AUTO 34010G16KT 10SM SCT022 SCT030 SCT038 M18/M21 A3067 RMK AO2 T11771211
KBVN 160215Z AUTO 34011KT 10SM SCT021 SCT026 OVC038 M17/M21 A3066 RMK AO2 T11731209
KBVN 160155Z AUTO 34011G14KT 10SM SCT038 M17/M21 A3066 RMK AO2 T11731210
KBVN 160135Z AUTO 33011KT 10SM CLR M17/M21 A3066 RMK AO2 T11731211
KBVN 160115Z AUTO 33011G19KT 10SM CLR M17/M21 A3065 RMK AO2 T11751211
KBVN 160055Z AUTO 33015KT 10SM CLR M17/M21 A3064 RMK AO2 T11751211
KBVN 160035Z AUTO 34013G18KT 10SM CLR M17/M21 A3063 RMK AO2 T11721211
KBVN 160015Z AUTO 34014G17KT 10SM SCT022 SCT033 M17/M21 A3063 RMK AO2 T11711211
KBVN 152355Z AUTO 35016G21KT 7SM SCT020 BKN026 OVC033 M16/M20 A3062 RMK AO2 T11651203 11145 21165
KBVN 152335Z AUTO 33013KT 7SM SCT015 SCT019 OVC027 M16/M20 A3061 RMK AO2 T11651205
KBVN 152315Z AUTO 33016G22KT 10SM SCT015 BKN020 OVC026 M16/M21 A3061 RMK AO2 T11651207
KBVN 152300Z AUTO 32020G23KT 4SM HZ SCT010 BKN026 OVC034 M16/M20 A3061 RMK AO2 T11631204
KBVN 152235Z AUTO 33022G27KT 10SM BKN026 OVC034 M16/M21 A3061 RMK AO2 T11601208
KBVN 152215Z AUTO 33023G29KT 10SM OVC026 M16/M21 A3061 RMK AO2 T11591213
KBVN 152155Z AUTO 33022G30KT 7SM OVC026 M16/M21 A3059 RMK AO2 T11561210
KBVN 152135Z AUTO 33025G30KT 7SM BKN024 OVC029 M15/M21 A3059 RMK AO2 T11541207
KBVN 152115Z AUTO 32023G28KT 7SM OVC024 M15/M21 A3058 RMK AO2 T11531206
KBVN 152055Z AUTO 33021G36KT 10SM OVC025 M16/M21 A3057 RMK AO2 T11561210
KBVN 152035Z AUTO 32023G27KT 10SM OVC025 M15/M20 A3057 RMK AO2 T11531205
KBVN 152015Z AUTO 33027G31KT 10SM BKN023 M15/M20 A3057 RMK AO2 T11491202
KBVN 151955Z AUTO 34024G29KT 10SM BKN023 M15/M20 A3056 RMK AO2 T11511205
KBVN 151935Z AUTO 34021G29KT 10SM BKN023 M15/M20 A3057 RMK AO2 T11501202
KBVN 151915Z AUTO 33024G28KT 10SM BKN021 M15/M20 A3057 RMK AO2 T11481202
KBVN 151855Z AUTO 32022G31KT 10SM OVC021 M15/M20 A3058 RMK AO2 T11481200
KBVN 151835Z AUTO 33020G30KT 10SM BKN023 M15/M20 A3057 RMK AO2 T11471199
KBVN 151815Z AUTO 33023G30KT 10SM SCT023 M15/M20 A3058 RMK AO2 T11471197
KBVN 151755Z AUTO 32021G29KT 10SM SCT023 M15/M20 A3058 RMK AO2 T11471198 11146 21173
KBVN 151735Z AUTO 33021G30KT 10SM SCT021 M15/M20 A3058 RMK AO2 T11481199
KBVN 151715Z AUTO 33020G23KT 10SM SCT021 M15/M20 A3059 RMK AO2 T11501199
KBVN 151655Z AUTO 34017G25KT 10SM SCT021 M15/M20 A3060 RMK AO2 T11531200
KBVN 151635Z AUTO 33017G23KT 10SM BKN019 M16/M20 A3059 RMK AO2 T11561202
KBVN 151615Z AUTO 33016G23KT 10SM SCT019 M16/M20 A3058 RMK AO2 T11601204
KBVN 151555Z AUTO 33018G23KT 10SM SCT019 M16/M21 A3058 RMK AO2 T11651206
KBVN 151535Z AUTO 33018G27KT 10SM SCT019 M17/M21 A3056 RMK AO2 T11691210
KBVN 151515Z AUTO 33015G23KT 10SM SCT019 M17/M21 A3055 RMK AO2 T11701210
KBVN 151455Z AUTO 34016G22KT 10SM SCT014 SCT019 M17/M21 A3054 RMK AO2 T11721210